createdAt,value
2018-05-26T00:00:00.987Z,17.90
2018-05-26T00:01:03.516Z,18.00
2018-05-26T00:02:06.045Z,18.00
2018-05-26T00:03:08.597Z,18.00
2018-05-26T00:04:11.119Z,17.90
2018-05-26T00:05:13.669Z,17.80
2018-05-26T00:06:16.291Z,17.80
2018-05-26T00:07:18.820Z,17.80
2018-05-26T00:08:22.119Z,17.80
2018-05-26T00:09:24.652Z,17.80
2018-05-26T00:10:27.233Z,17.80
2018-05-26T00:11:29.759Z,17.80
2018-05-26T00:12:32.293Z,17.70
2018-05-26T00:13:34.851Z,17.60
2018-05-26T00:14:38.140Z,17.70
2018-05-26T00:15:40.664Z,17.60
2018-05-26T00:16:43.196Z,17.70
2018-05-26T00:17:45.723Z,17.70
2018-05-26T00:18:49.056Z,17.70
2018-05-26T00:19:52.474Z,17.70
2018-05-26T00:20:55.013Z,17.70
2018-05-26T00:21:57.532Z,17.60
2018-05-26T00:23:02.637Z,17.60
2018-05-26T00:24:05.209Z,17.60
2018-05-26T00:25:07.740Z,17.60
2018-05-26T00:26:10.260Z,17.60
2018-05-26T00:27:13.559Z,17.50
2018-05-26T00:28:16.083Z,17.50
2018-05-26T00:29:18.651Z,17.60
2018-05-26T00:30:21.180Z,17.60
2018-05-26T00:31:23.706Z,17.60
2018-05-26T00:32:26.996Z,17.60
2018-05-26T00:33:30.287Z,17.60
2018-05-26T00:34:32.848Z,17.60
2018-05-26T00:35:35.374Z,17.60
2018-05-26T00:36:37.910Z,17.60
2018-05-26T00:37:40.433Z,17.50
2018-05-26T00:38:43.728Z,17.50
2018-05-26T00:39:47.051Z,17.50
2018-05-26T00:40:49.613Z,17.50
2018-05-26T00:41:52.141Z,17.40
2018-05-26T00:42:55.430Z,17.30
2018-05-26T00:43:57.967Z,17.30
2018-05-26T00:45:00.545Z,17.30
2018-05-26T00:46:03.842Z,17.30
2018-05-26T00:47:06.368Z,17.30
2018-05-26T00:48:08.903Z,17.30
2018-05-26T00:49:11.422Z,17.30
2018-05-26T00:50:13.991Z,17.30
2018-05-26T00:51:16.517Z,17.30
2018-05-26T00:52:19.035Z,17.30
2018-05-26T00:53:22.341Z,17.20
2018-05-26T00:54:24.868Z,17.20
2018-05-26T00:55:27.442Z,17.30
2018-05-26T00:56:29.965Z,17.20
2018-05-26T00:57:32.485Z,17.20
2018-05-26T00:58:35.773Z,17.20
2018-05-26T00:59:38.306Z,17.20
2018-05-26T01:00:40.868Z,17.20
2018-05-26T01:01:43.387Z,17.10
2018-05-26T01:02:45.912Z,17.10
2018-05-26T01:03:48.481Z,17.10
2018-05-26T01:04:51.011Z,17.00
2018-05-26T01:05:53.567Z,17.00
2018-05-26T01:06:56.084Z,16.90
2018-05-26T01:07:59.378Z,16.90
2018-05-26T01:09:01.937Z,16.90
2018-05-26T01:10:05.220Z,16.90
2018-05-26T01:11:07.741Z,16.90
2018-05-26T01:12:10.264Z,16.80
2018-05-26T01:13:13.561Z,16.90
2018-05-26T01:14:16.120Z,16.80
2018-05-26T01:15:18.653Z,16.90
2018-05-26T01:16:21.214Z,16.90
2018-05-26T01:17:23.749Z,16.90
2018-05-26T01:18:26.273Z,16.70
2018-05-26T01:19:29.601Z,16.60
2018-05-26T01:20:32.156Z,16.60
2018-05-26T01:21:34.683Z,16.60
2018-05-26T01:22:37.971Z,16.60
2018-05-26T01:23:41.260Z,16.70
2018-05-26T01:24:44.582Z,16.80
2018-05-26T01:25:47.104Z,16.70
2018-05-26T01:26:50.391Z,16.70
2018-05-26T01:27:52.958Z,16.60
2018-05-26T01:28:56.249Z,16.70
2018-05-26T01:29:59.593Z,16.70
2018-05-26T01:31:02.116Z,16.70
2018-05-26T01:32:04.636Z,16.60
2018-05-26T01:33:07.169Z,16.60
2018-05-26T01:34:09.691Z,16.60
2018-05-26T01:35:13.021Z,16.70
2018-05-26T01:36:15.559Z,16.70
2018-05-26T01:37:18.090Z,16.60
2018-05-26T01:38:20.619Z,16.60
2018-05-26T01:39:23.143Z,16.50
2018-05-26T01:40:26.477Z,16.50
2018-05-26T01:41:28.998Z,16.50
2018-05-26T01:42:32.311Z,16.40
2018-05-26T01:43:34.831Z,16.40
2018-05-26T01:44:37.355Z,16.40
2018-05-26T01:45:39.930Z,16.40
2018-05-26T01:46:42.455Z,16.40
2018-05-26T01:47:44.984Z,16.40
2018-05-26T01:48:47.516Z,16.40
2018-05-26T01:49:50.044Z,16.40
2018-05-26T01:50:53.370Z,16.40
2018-05-26T01:51:55.891Z,16.40
2018-05-26T01:52:59.177Z,16.40
2018-05-26T01:54:02.464Z,16.50
2018-05-26T01:55:05.052Z,16.40
2018-05-26T01:56:07.614Z,16.50
2018-05-26T01:57:10.139Z,16.40
2018-05-26T01:58:12.700Z,16.50
2018-05-26T01:59:15.223Z,16.40
2018-05-26T02:00:17.751Z,16.40
2018-05-26T02:01:21.174Z,16.40
2018-05-26T02:02:24.483Z,16.40
2018-05-26T02:03:27.019Z,16.40
2018-05-26T02:04:29.600Z,16.40
2018-05-26T02:05:32.152Z,16.40
2018-05-26T02:06:34.686Z,16.40
2018-05-26T02:07:37.972Z,16.40
2018-05-26T02:08:41.481Z,16.30
2018-05-26T02:09:44.032Z,16.30
2018-05-26T02:10:47.321Z,16.30
2018-05-26T02:11:50.637Z,16.30
2018-05-26T02:12:53.156Z,16.20
2018-05-26T02:13:56.458Z,16.20
2018-05-26T02:14:59.001Z,16.20
2018-05-26T02:16:01.551Z,16.20
2018-05-26T02:17:04.076Z,16.20
2018-05-26T02:18:06.608Z,16.20
2018-05-26T02:19:09.943Z,16.20
2018-05-26T02:20:12.477Z,16.10
2018-05-26T02:21:15.004Z,16.20
2018-05-26T02:22:17.533Z,16.10
2018-05-26T02:23:20.056Z,16.10
2018-05-26T02:24:23.383Z,15.90
2018-05-26T02:25:25.916Z,15.90
2018-05-26T02:26:29.238Z,15.80
2018-05-26T02:27:31.767Z,15.80
2018-05-26T02:28:35.068Z,15.80
2018-05-26T02:29:37.604Z,15.80
2018-05-26T02:30:40.927Z,15.80
2018-05-26T02:31:43.458Z,15.70
2018-05-26T02:32:46.753Z,15.70
2018-05-26T02:33:50.053Z,15.70
2018-05-26T02:34:52.581Z,15.70
2018-05-26T02:35:55.144Z,15.80
2018-05-26T02:36:57.673Z,15.80
2018-05-26T02:38:00.199Z,15.80
2018-05-26T02:39:03.488Z,15.80
2018-05-26T02:40:06.781Z,15.80
2018-05-26T02:41:09.367Z,15.80
2018-05-26T02:42:11.900Z,15.80
2018-05-26T02:43:15.199Z,15.80
2018-05-26T02:44:17.733Z,15.80
2018-05-26T02:45:20.259Z,15.80
2018-05-26T02:46:22.816Z,15.80
2018-05-26T02:47:25.346Z,15.80
2018-05-26T02:48:28.635Z,15.70
2018-05-26T02:49:31.921Z,15.70
2018-05-26T02:50:34.447Z,15.70
2018-05-26T02:51:37.013Z,15.70
2018-05-26T02:52:39.543Z,15.70
2018-05-26T02:53:42.103Z,15.60
2018-05-26T02:54:44.644Z,15.70
2018-05-26T02:55:47.954Z,15.70
2018-05-26T02:56:50.475Z,15.70
2018-05-26T02:57:53.032Z,15.70
2018-05-26T02:58:55.552Z,15.70
2018-05-26T02:59:58.104Z,15.70
2018-05-26T03:01:00.632Z,15.70
2018-05-26T03:02:03.161Z,15.70
2018-05-26T03:03:05.688Z,15.70
2018-05-26T03:04:08.532Z,15.60
2018-05-26T03:05:16.880Z,15.50
2018-05-26T03:06:25.142Z,15.50
2018-05-26T03:07:33.309Z,15.50
2018-05-26T03:08:41.480Z,15.50
2018-05-26T03:09:49.740Z,15.60
2018-05-26T03:10:57.881Z,15.60
2018-05-26T03:12:06.049Z,15.50
2018-05-26T03:13:15.211Z,15.50
2018-05-26T03:14:23.348Z,15.50
2018-05-26T03:15:26.175Z,15.40
2018-05-26T03:16:28.706Z,15.40
2018-05-26T03:17:32.002Z,15.30
2018-05-26T03:18:35.319Z,15.30
2018-05-26T03:19:37.850Z,15.30
2018-05-26T03:20:41.152Z,15.20
2018-05-26T03:21:43.683Z,15.20
2018-05-26T03:22:46.213Z,15.20
2018-05-26T03:23:48.768Z,15.30
2018-05-26T03:24:51.292Z,15.30
2018-05-26T03:25:54.585Z,15.30
2018-05-26T03:26:57.875Z,15.30
2018-05-26T03:28:00.411Z,15.30
2018-05-26T03:29:03.000Z,15.30
2018-05-26T03:30:06.301Z,15.20
2018-05-26T03:31:08.834Z,15.20
2018-05-26T03:32:11.373Z,15.20
2018-05-26T03:33:13.898Z,15.20
2018-05-26T03:34:16.469Z,15.20
2018-05-26T03:35:18.996Z,15.20
2018-05-26T03:36:21.535Z,15.20
2018-05-26T03:37:24.071Z,15.10
2018-05-26T03:38:26.587Z,15.10
2018-05-26T03:39:29.147Z,15.10
2018-05-26T03:40:31.696Z,15.10
2018-05-26T03:41:34.233Z,15.20
2018-05-26T03:42:36.772Z,15.10
2018-05-26T03:43:40.061Z,15.10
2018-05-26T03:44:48.304Z,15.10
2018-05-26T03:45:50.836Z,15.10
2018-05-26T03:46:53.355Z,15.10
2018-05-26T03:47:55.881Z,15.10
2018-05-26T03:48:58.407Z,15.10
2018-05-26T03:50:00.981Z,15.10
2018-05-26T03:51:04.277Z,15.10
2018-05-26T03:52:07.568Z,15.10
2018-05-26T03:53:10.093Z,15.10
2018-05-26T03:54:12.616Z,15.20
2018-05-26T03:55:35.870Z,15.20
2018-05-26T03:56:50.335Z,15.10
2018-05-26T03:58:04.803Z,15.10
2018-05-26T03:59:17.112Z,15.10
2018-05-26T04:00:19.669Z,15.10
2018-05-26T04:01:22.228Z,15.10
2018-05-26T04:02:24.759Z,15.10
2018-05-26T04:03:28.129Z,15.10
2018-05-26T04:04:30.655Z,15.10
2018-05-26T04:05:33.178Z,15.10
2018-05-26T04:06:35.750Z,15.10
2018-05-26T04:07:38.275Z,14.90
2018-05-26T04:08:41.576Z,14.80
2018-05-26T04:09:44.099Z,14.80
2018-05-26T04:10:46.659Z,14.90
2018-05-26T04:11:49.175Z,14.90
2018-05-26T04:12:51.699Z,14.90
2018-05-26T04:13:54.224Z,14.90
2018-05-26T04:14:56.752Z,14.90
2018-05-26T04:16:00.087Z,14.90
2018-05-26T04:17:02.615Z,14.90
2018-05-26T04:18:05.919Z,15.00
2018-05-26T04:19:08.459Z,15.00
2018-05-26T04:20:11.743Z,15.00
2018-05-26T04:21:15.069Z,15.00
2018-05-26T04:22:17.596Z,15.00
2018-05-26T04:23:20.880Z,15.00
2018-05-26T04:24:24.168Z,15.00
2018-05-26T04:25:26.709Z,15.00
2018-05-26T04:26:29.274Z,15.00
2018-05-26T04:27:31.803Z,15.00
2018-05-26T04:28:34.325Z,15.00
2018-05-26T04:29:37.622Z,15.10
2018-05-26T04:30:40.147Z,15.10
2018-05-26T04:31:42.710Z,15.10
2018-05-26T04:32:45.265Z,15.10
2018-05-26T04:33:47.779Z,15.10
2018-05-26T04:34:51.072Z,15.10
2018-05-26T04:35:53.605Z,15.10
2018-05-26T04:36:56.169Z,15.10
2018-05-26T04:37:58.697Z,15.10
2018-05-26T04:39:01.223Z,15.10
2018-05-26T04:40:04.522Z,15.10
2018-05-26T04:41:07.048Z,15.10
2018-05-26T04:42:09.608Z,15.20
2018-05-26T04:43:12.175Z,15.20
2018-05-26T04:44:14.703Z,15.20
2018-05-26T04:45:17.241Z,15.30
2018-05-26T04:46:20.547Z,15.30
2018-05-26T04:47:23.075Z,15.30
2018-05-26T04:48:26.413Z,15.30
2018-05-26T04:49:28.941Z,15.30
2018-05-26T04:50:32.242Z,15.30
2018-05-26T04:51:34.768Z,15.30
2018-05-26T04:52:37.292Z,15.30
2018-05-26T04:53:39.856Z,15.30
2018-05-26T04:54:42.388Z,15.20
2018-05-26T04:55:45.707Z,15.30
2018-05-26T04:56:48.242Z,15.30
2018-05-26T04:57:51.531Z,15.40
2018-05-26T04:58:54.059Z,15.40
2018-05-26T04:59:56.588Z,15.40
2018-05-26T05:00:59.141Z,15.40
2018-05-26T05:02:01.677Z,15.30
2018-05-26T05:03:04.222Z,15.40
2018-05-26T05:04:06.747Z,15.50
2018-05-26T05:05:09.312Z,15.40
2018-05-26T05:06:11.831Z,15.40
2018-05-26T05:07:15.139Z,15.60
2018-05-26T05:08:17.673Z,15.60
2018-05-26T05:09:20.199Z,15.60
2018-05-26T05:10:22.759Z,15.60
2018-05-26T05:11:25.288Z,15.60
2018-05-26T05:12:28.588Z,15.70
2018-05-26T05:13:31.883Z,15.60
2018-05-26T05:14:34.452Z,15.60
2018-05-26T05:15:36.980Z,15.60
2018-05-26T05:16:39.508Z,15.70
2018-05-26T05:17:42.043Z,15.70
2018-05-26T05:18:44.580Z,15.70
2018-05-26T05:19:47.136Z,15.80
2018-05-26T05:20:49.660Z,15.80
2018-05-26T05:21:52.187Z,15.90
2018-05-26T05:22:55.521Z,16.20
2018-05-26T05:23:58.054Z,16.20
2018-05-26T05:25:00.627Z,16.20
2018-05-26T05:26:03.171Z,16.20
2018-05-26T05:27:06.471Z,16.30
2018-05-26T05:28:09.011Z,16.30
2018-05-26T05:29:11.535Z,16.30
2018-05-26T05:30:14.874Z,16.40
2018-05-26T05:31:18.172Z,16.50
2018-05-26T05:32:21.460Z,16.40
2018-05-26T05:33:23.986Z,16.40
2018-05-26T05:34:26.535Z,16.40
2018-05-26T05:35:29.140Z,16.40
2018-05-26T05:36:32.432Z,16.40
2018-05-26T05:37:35.753Z,16.40
2018-05-26T05:38:38.271Z,16.40
2018-05-26T05:39:40.814Z,16.40
2018-05-26T05:40:43.384Z,16.40
2018-05-26T05:41:45.912Z,16.50
2018-05-26T05:42:48.446Z,16.50
2018-05-26T05:43:51.742Z,16.60
2018-05-26T05:44:54.317Z,16.60
2018-05-26T05:45:56.883Z,16.70
2018-05-26T05:46:59.415Z,16.70
2018-05-26T05:48:02.712Z,16.80
2018-05-26T05:49:06.048Z,16.80
2018-05-26T05:50:08.588Z,16.80
2018-05-26T05:51:11.125Z,16.90
2018-05-26T05:52:14.427Z,17.00
2018-05-26T05:53:16.987Z,16.90
2018-05-26T05:54:19.584Z,17.00
2018-05-26T05:55:22.122Z,17.00
2018-05-26T05:56:25.453Z,17.00
2018-05-26T05:57:27.952Z,17.00
2018-05-26T05:58:30.471Z,17.00
2018-05-26T05:59:33.048Z,17.00
2018-05-26T06:00:35.571Z,17.00
2018-05-26T06:01:38.111Z,17.00
2018-05-26T06:02:40.678Z,17.10
2018-05-26T06:03:43.980Z,17.30
2018-05-26T06:04:47.327Z,17.40
2018-05-26T06:05:49.854Z,17.40
2018-05-26T06:06:52.381Z,17.50
2018-05-26T06:07:54.923Z,17.50
2018-05-26T06:08:57.455Z,17.50
2018-05-26T06:10:00.029Z,17.40
2018-05-26T06:11:02.568Z,17.50
2018-05-26T06:12:05.868Z,17.50
2018-05-26T06:13:08.401Z,17.50
2018-05-26T06:14:10.941Z,17.50
2018-05-26T06:15:13.569Z,17.60
2018-05-26T06:16:16.836Z,17.50
2018-05-26T06:17:20.121Z,17.50
2018-05-26T06:18:23.416Z,17.50
2018-05-26T06:19:25.962Z,17.50
2018-05-26T06:20:29.304Z,17.60
2018-05-26T06:21:31.831Z,17.60
2018-05-26T06:22:34.368Z,17.70
2018-05-26T06:23:36.904Z,17.70
2018-05-26T06:24:39.464Z,17.70
2018-05-26T06:25:42.028Z,17.80
2018-05-26T06:26:44.556Z,17.90
2018-05-26T06:27:47.093Z,17.90
2018-05-26T06:28:50.432Z,18.00
2018-05-26T06:29:53.815Z,18.00
2018-05-26T06:30:56.348Z,18.00
2018-05-26T06:31:59.643Z,18.10
2018-05-26T06:33:02.187Z,18.00
2018-05-26T06:34:05.487Z,18.10
2018-05-26T06:35:08.832Z,18.10
2018-05-26T06:36:11.365Z,18.10
2018-05-26T06:37:13.920Z,18.10
2018-05-26T06:38:16.468Z,18.10
2018-05-26T06:39:19.767Z,18.30
2018-05-26T06:40:22.344Z,18.30
2018-05-26T06:41:24.888Z,18.30
2018-05-26T06:42:27.427Z,18.40
2018-05-26T06:43:30.011Z,18.30
2018-05-26T06:44:32.531Z,18.40
2018-05-26T06:45:35.060Z,18.40
2018-05-26T06:46:37.590Z,18.60
2018-05-26T06:47:40.119Z,18.60
2018-05-26T06:48:42.685Z,18.60
2018-05-26T06:49:45.268Z,18.60
2018-05-26T06:50:47.844Z,18.50
2018-05-26T06:51:50.355Z,18.60
2018-05-26T06:52:52.906Z,18.60
2018-05-26T06:53:56.213Z,18.70
2018-05-26T06:54:58.798Z,18.70
2018-05-26T06:56:01.329Z,18.80
2018-05-26T06:57:04.637Z,18.90
2018-05-26T06:58:07.173Z,18.90
2018-05-26T06:59:10.483Z,18.80
2018-05-26T07:00:13.073Z,18.80
2018-05-26T07:01:15.604Z,18.80
2018-05-26T07:02:18.139Z,18.90
2018-05-26T07:03:20.673Z,18.90
2018-05-26T07:04:23.518Z,19.00
2018-05-26T07:05:26.125Z,18.90
2018-05-26T07:06:28.661Z,19.00
2018-05-26T07:07:31.201Z,19.00
2018-05-26T07:08:34.501Z,18.90
2018-05-26T07:09:37.039Z,18.90
2018-05-26T07:10:40.384Z,19.00
2018-05-26T07:11:42.918Z,19.00
2018-05-26T07:12:45.461Z,19.00
2018-05-26T07:13:48.752Z,19.20
2018-05-26T07:14:52.048Z,19.30
2018-05-26T07:15:54.615Z,19.20
2018-05-26T07:16:57.147Z,19.30
2018-05-26T07:17:59.716Z,19.40
2018-05-26T07:19:02.293Z,19.50
2018-05-26T07:20:05.614Z,19.50
2018-05-26T07:21:08.151Z,19.50
2018-05-26T07:22:11.465Z,19.40
2018-05-26T07:23:14.044Z,19.40
2018-05-26T07:24:16.590Z,19.40
2018-05-26T07:25:19.122Z,19.50
2018-05-26T07:26:21.660Z,19.50
2018-05-26T07:27:24.189Z,19.60
2018-05-26T07:28:26.763Z,19.60
2018-05-26T07:29:29.295Z,19.70
2018-05-26T07:30:32.595Z,19.90
2018-05-26T07:31:35.176Z,19.90
2018-05-26T07:32:37.705Z,20.00
2018-05-26T07:33:40.266Z,20.10
2018-05-26T07:34:42.781Z,20.10
2018-05-26T07:35:45.307Z,20.10
2018-05-26T07:36:48.631Z,20.10
2018-05-26T07:37:51.164Z,20.10
2018-05-26T07:38:54.469Z,20.10
2018-05-26T07:39:57.003Z,20.10
2018-05-26T07:40:59.527Z,20.20
2018-05-26T07:42:02.083Z,20.30
2018-05-26T07:43:04.640Z,20.40
2018-05-26T07:44:07.203Z,20.40
2018-05-26T07:45:09.735Z,20.50
2018-05-26T07:46:13.041Z,20.50
2018-05-26T07:47:16.337Z,20.60
2018-05-26T07:48:18.877Z,20.60
2018-05-26T07:49:22.211Z,20.70
2018-05-26T07:50:24.744Z,20.70
2018-05-26T07:51:27.275Z,20.70
2018-05-26T07:52:29.804Z,20.60
2018-05-26T07:53:32.346Z,20.60
2018-05-26T07:54:34.905Z,20.70
2018-05-26T07:55:38.199Z,20.90
2018-05-26T07:56:40.741Z,20.90
2018-05-26T07:57:44.031Z,21.00
2018-05-26T07:58:47.363Z,21.10
2018-05-26T07:59:49.906Z,21.10
2018-05-26T08:00:52.475Z,21.10
2018-05-26T08:01:55.011Z,21.10
2018-05-26T08:02:58.312Z,21.30
2018-05-26T08:04:00.836Z,21.30
2018-05-26T08:05:03.408Z,21.30
2018-05-26T08:06:05.932Z,21.40
2018-05-26T08:07:08.458Z,21.50
2018-05-26T08:08:11.795Z,21.70
2018-05-26T08:09:14.327Z,21.60
2018-05-26T08:10:17.628Z,21.70
2018-05-26T08:11:20.156Z,21.60
2018-05-26T08:12:23.456Z,21.50
2018-05-26T08:13:26.784Z,21.60
2018-05-26T08:14:29.310Z,21.50
2018-05-26T08:15:31.843Z,21.60
2018-05-26T08:16:34.416Z,21.60
2018-05-26T08:17:36.945Z,21.70
2018-05-26T08:18:39.477Z,21.70
2018-05-26T08:19:42.776Z,21.90
2018-05-26T08:20:45.297Z,21.90
2018-05-26T08:21:47.869Z,22.00
2018-05-26T08:22:50.412Z,22.00
2018-05-26T08:23:52.935Z,22.20
2018-05-26T08:24:55.460Z,22.20
2018-05-26T08:25:58.024Z,22.20
2018-05-26T08:27:00.558Z,22.20
2018-05-26T08:28:03.103Z,22.20
2018-05-26T08:29:05.645Z,22.20
2018-05-26T08:30:08.932Z,22.10
2018-05-26T08:31:12.260Z,22.30
2018-05-26T08:32:14.795Z,22.20
2018-05-26T08:33:17.360Z,22.30
2018-05-26T08:34:19.883Z,22.30
2018-05-26T08:35:22.412Z,22.40
2018-05-26T08:36:24.974Z,22.50
2018-05-26T08:37:27.511Z,22.60
2018-05-26T08:38:30.813Z,22.70
2018-05-26T08:39:33.351Z,22.70
2018-05-26T08:40:36.650Z,22.90
2018-05-26T08:41:39.991Z,22.90
2018-05-26T08:42:42.539Z,22.90
2018-05-26T08:43:45.073Z,23.10
2018-05-26T08:44:48.369Z,23.10
2018-05-26T08:45:50.895Z,23.10
2018-05-26T08:46:53.501Z,23.20
2018-05-26T08:47:56.064Z,23.30
2018-05-26T08:48:58.609Z,23.30
2018-05-26T08:50:01.895Z,23.50
2018-05-26T08:51:05.197Z,23.70
2018-05-26T08:52:07.765Z,23.60
2018-05-26T08:53:10.335Z,23.60
2018-05-26T08:54:12.872Z,23.70
2018-05-26T08:55:15.400Z,23.90
2018-05-26T08:56:17.955Z,23.90
2018-05-26T08:57:20.492Z,23.90
2018-05-26T08:58:23.060Z,23.90
2018-05-26T08:59:25.599Z,24.00
2018-05-26T09:00:28.133Z,24.10
2018-05-26T09:01:30.695Z,24.00
2018-05-26T09:02:33.227Z,24.10
2018-05-26T09:03:35.782Z,24.00
2018-05-26T09:04:39.082Z,24.20
2018-05-26T09:05:41.666Z,24.20
2018-05-26T09:06:44.950Z,24.30
2018-05-26T09:07:47.484Z,24.30
2018-05-26T09:08:50.777Z,24.50
2018-05-26T09:09:54.063Z,24.50
2018-05-26T09:10:56.604Z,24.40
2018-05-26T09:11:59.169Z,24.50
2018-05-26T09:13:01.695Z,24.60
2018-05-26T09:14:04.211Z,24.70
2018-05-26T09:15:07.501Z,24.80
2018-05-26T09:16:10.827Z,24.90
2018-05-26T09:17:13.364Z,24.90
2018-05-26T09:18:15.887Z,25.10
2018-05-26T09:19:18.413Z,25.10
2018-05-26T09:20:20.976Z,25.30
2018-05-26T09:21:23.503Z,25.30
2018-05-26T09:22:26.051Z,25.40
2018-05-26T09:23:28.575Z,25.50
2018-05-26T09:24:31.865Z,25.50
2018-05-26T09:25:34.421Z,25.50
2018-05-26T09:26:36.969Z,25.60
2018-05-26T09:27:39.509Z,25.70
2018-05-26T09:28:42.852Z,25.70
2018-05-26T09:29:45.382Z,25.70
2018-05-26T09:30:48.670Z,25.80
2018-05-26T09:31:51.951Z,25.90
2018-05-26T09:32:55.272Z,25.70
2018-05-26T09:33:57.834Z,25.70
2018-05-26T09:35:00.367Z,25.70
2018-05-26T09:36:03.659Z,25.70
2018-05-26T09:37:06.184Z,25.70
2018-05-26T09:38:08.703Z,25.70
2018-05-26T09:39:11.272Z,25.70
2018-05-26T09:40:13.800Z,25.80
2018-05-26T09:41:16.329Z,25.90
2018-05-26T09:42:18.838Z,25.90
2018-05-26T09:43:22.130Z,26.10
2018-05-26T09:44:24.699Z,26.10
2018-05-26T09:45:27.988Z,26.00
2018-05-26T09:46:30.524Z,26.00
2018-05-26T09:47:33.048Z,26.10
2018-05-26T09:48:35.564Z,26.00
2018-05-26T09:49:38.212Z,26.10
2018-05-26T09:50:40.741Z,26.20
2018-05-26T09:51:43.267Z,26.20
2018-05-26T09:52:46.555Z,26.20
2018-05-26T09:53:49.841Z,26.40
2018-05-26T09:54:53.168Z,26.50
2018-05-26T09:55:55.705Z,26.50
2018-05-26T09:56:58.223Z,26.40
2018-05-26T09:58:00.778Z,26.50
2018-05-26T09:59:03.305Z,26.50
2018-05-26T10:00:05.821Z,26.60
2018-05-26T10:01:08.372Z,26.50
2018-05-26T10:02:10.913Z,26.50
2018-05-26T10:03:13.445Z,26.50
2018-05-26T10:04:16.015Z,26.50
2018-05-26T10:05:18.556Z,26.30
2018-05-26T10:06:21.076Z,26.20
2018-05-26T10:07:23.596Z,26.20
2018-05-26T10:08:26.118Z,26.20
2018-05-26T10:09:28.667Z,26.20
2018-05-26T10:10:31.182Z,26.20
2018-05-26T10:11:33.705Z,26.30
2018-05-26T10:12:36.261Z,26.30
2018-05-26T10:13:38.783Z,26.40
2018-05-26T10:14:41.300Z,26.50
2018-05-26T10:15:44.595Z,26.40
2018-05-26T10:16:47.120Z,26.40
2018-05-26T10:17:50.450Z,26.40
2018-05-26T10:18:52.968Z,26.40
2018-05-26T10:19:55.505Z,26.40
2018-05-26T10:20:58.035Z,26.50
2018-05-26T10:22:00.597Z,26.60
2018-05-26T10:23:03.121Z,26.70
2018-05-26T10:24:05.680Z,26.80
2018-05-26T10:25:08.201Z,26.90
2018-05-26T10:26:10.742Z,26.90
2018-05-26T10:27:14.031Z,27.10
2018-05-26T10:28:17.371Z,27.30
2018-05-26T10:29:19.901Z,27.30
2018-05-26T10:30:22.432Z,27.50
2018-05-26T10:31:24.958Z,27.70
2018-05-26T10:32:27.481Z,27.80
2018-05-26T10:33:30.819Z,28.10
2018-05-26T10:34:33.375Z,28.10
2018-05-26T10:35:35.955Z,28.20
2018-05-26T10:36:38.610Z,28.10
2018-05-26T10:37:41.143Z,28.20
2018-05-26T10:38:43.679Z,28.40
2018-05-26T10:39:46.254Z,28.50
2018-05-26T10:40:49.643Z,28.30
2018-05-26T10:41:53.020Z,28.40
2018-05-26T10:42:57.437Z,28.30
2018-05-26T10:44:00.734Z,28.40
2018-05-26T10:45:04.057Z,28.40
2018-05-26T10:46:18.667Z,28.40
2018-05-26T10:47:21.948Z,28.50
2018-05-26T10:48:24.500Z,28.50
2018-05-26T10:49:27.073Z,28.60
2018-05-26T10:50:30.404Z,28.80
2018-05-26T10:51:32.921Z,28.70
2018-05-26T10:52:36.216Z,29.00
2018-05-26T10:53:39.512Z,29.20
2018-05-26T10:54:42.033Z,29.20
2018-05-26T10:55:44.593Z,29.00
2018-05-26T10:56:47.113Z,28.40
2018-05-26T10:57:49.635Z,28.40
2018-05-26T10:58:52.152Z,28.20
2018-05-26T10:59:54.672Z,28.10
2018-05-26T11:00:57.290Z,28.20
2018-05-26T11:02:00.910Z,28.30
2018-05-26T11:03:03.437Z,28.00
2018-05-26T11:04:05.965Z,27.90
2018-05-26T11:05:09.297Z,28.10
2018-05-26T11:06:11.825Z,28.10
2018-05-26T11:07:15.132Z,28.50
2018-05-26T11:08:17.702Z,28.50
2018-05-26T11:09:20.239Z,28.70
2018-05-26T11:10:23.539Z,28.80
2018-05-26T11:11:26.838Z,29.00
2018-05-26T11:12:29.353Z,28.90
2018-05-26T11:13:31.948Z,29.10
2018-05-26T11:14:35.290Z,29.10
2018-05-26T11:15:37.837Z,29.10
2018-05-26T11:16:40.365Z,29.00
2018-05-26T11:17:43.885Z,28.70
2018-05-26T11:18:46.200Z,28.70
2018-05-26T11:19:48.754Z,28.20
2018-05-26T11:20:51.272Z,28.00
2018-05-26T11:21:53.820Z,28.00
2018-05-26T11:22:57.177Z,28.10
2018-05-26T11:23:59.819Z,28.10
2018-05-26T11:25:02.276Z,28.10
2018-05-26T11:26:05.021Z,28.20
2018-05-26T11:27:07.369Z,28.20
2018-05-26T11:28:10.675Z,28.50
2018-05-26T11:29:13.233Z,28.50
2018-05-26T11:30:15.764Z,28.60
2018-05-26T11:31:18.292Z,28.80
2018-05-26T11:32:20.843Z,28.90
2018-05-26T11:33:23.356Z,28.80
2018-05-26T11:34:25.903Z,29.00
2018-05-26T11:35:28.441Z,29.00
2018-05-26T11:36:30.965Z,28.90
2018-05-26T11:37:33.495Z,28.80
2018-05-26T11:38:36.023Z,28.80
2018-05-26T11:39:38.588Z,28.80
2018-05-26T11:40:41.104Z,28.70
2018-05-26T11:41:43.665Z,28.50
2018-05-26T11:42:46.187Z,28.60
2018-05-26T11:43:49.476Z,28.80
2018-05-26T11:44:52.001Z,28.80
2018-05-26T11:45:54.521Z,28.90
2018-05-26T11:46:57.081Z,29.00
2018-05-26T11:47:59.602Z,29.00
2018-05-26T11:49:02.128Z,29.00
2018-05-26T11:50:04.662Z,29.00
2018-05-26T11:51:07.190Z,29.00
2018-05-26T11:52:09.760Z,29.00
2018-05-26T11:53:12.273Z,29.00
2018-05-26T11:54:14.805Z,28.90
2018-05-26T11:55:17.331Z,28.70
2018-05-26T11:56:19.860Z,28.50
2018-05-26T11:57:23.187Z,28.50
2018-05-26T11:58:25.704Z,28.50
2018-05-26T11:59:28.992Z,28.50
2018-05-26T12:00:32.274Z,28.60
2018-05-26T12:01:35.564Z,28.50
2018-05-26T12:02:38.888Z,28.50
2018-05-26T12:03:41.420Z,28.50
2018-05-26T12:04:43.953Z,28.70
2018-05-26T12:05:46.475Z,28.90
2018-05-26T12:06:48.996Z,29.00
2018-05-26T12:07:52.340Z,29.40
2018-05-26T12:08:54.872Z,29.40
2018-05-26T12:09:57.432Z,29.60
2018-05-26T12:11:00.717Z,29.80
2018-05-26T12:12:03.235Z,29.70
2018-05-26T12:13:05.760Z,29.90
2018-05-26T12:14:08.276Z,30.00
2018-05-26T12:15:10.836Z,30.10
2018-05-26T12:16:13.361Z,30.10
2018-05-26T12:17:15.878Z,30.30
2018-05-26T12:18:18.399Z,30.40
2018-05-26T12:19:20.949Z,30.60
2018-05-26T12:20:23.496Z,30.60
2018-05-26T12:21:26.783Z,30.40
2018-05-26T12:22:30.062Z,30.40
2018-05-26T12:23:33.354Z,30.50
2018-05-26T12:24:36.642Z,30.40
2018-05-26T12:25:39.206Z,30.30
2018-05-26T12:26:42.624Z,30.30
2018-05-26T12:27:45.145Z,30.30
2018-05-26T12:28:48.434Z,30.50
2018-05-26T12:29:51.724Z,30.60
2018-05-26T12:30:55.012Z,30.70
2018-05-26T12:31:58.347Z,30.90
2018-05-26T12:33:00.869Z,30.90
2018-05-26T12:34:03.418Z,31.10
2018-05-26T12:35:06.703Z,31.00
2018-05-26T12:36:09.980Z,31.00
2018-05-26T12:37:13.304Z,31.00
2018-05-26T12:38:15.830Z,31.00
2018-05-26T12:39:18.353Z,31.00
2018-05-26T12:40:20.867Z,31.10
2018-05-26T12:41:24.164Z,31.10
2018-05-26T12:42:26.727Z,31.10
2018-05-26T12:43:30.042Z,30.30
2018-05-26T12:44:33.330Z,30.40
2018-05-26T12:45:35.848Z,30.30
2018-05-26T12:46:39.129Z,30.20
2018-05-26T12:47:42.457Z,30.40
2018-05-26T12:48:44.990Z,30.40
2018-05-26T12:49:48.281Z,30.70
2018-05-26T12:50:51.567Z,30.60
2018-05-26T12:51:54.089Z,30.60
2018-05-26T12:52:56.655Z,30.50
2018-05-26T12:53:59.199Z,30.70
2018-05-26T12:55:01.747Z,30.80
2018-05-26T12:56:04.288Z,30.90
2018-05-26T12:57:07.603Z,31.00
2018-05-26T12:58:10.190Z,31.00
2018-05-26T12:59:12.741Z,30.80
2018-05-26T13:00:15.286Z,30.70
2018-05-26T13:01:17.846Z,30.60
2018-05-26T13:02:20.363Z,30.70
2018-05-26T13:03:22.917Z,30.60
2018-05-26T13:04:25.510Z,30.50
2018-05-26T13:05:28.080Z,30.60
2018-05-26T13:06:30.609Z,30.70
2018-05-26T13:07:33.395Z,30.70
2018-05-26T13:08:36.045Z,30.70
2018-05-26T13:09:38.575Z,30.90
2018-05-26T13:10:41.865Z,31.30
2018-05-26T13:11:45.146Z,31.40
2018-05-26T13:12:47.664Z,31.30
2018-05-26T13:13:50.223Z,31.40
2018-05-26T13:14:52.749Z,31.30
2018-05-26T13:15:56.039Z,30.80
2018-05-26T13:16:58.566Z,30.80
2018-05-26T13:18:01.076Z,30.50
2018-05-26T13:19:03.628Z,29.90
2018-05-26T13:20:06.194Z,30.00
2018-05-26T13:21:09.489Z,29.50
2018-05-26T13:22:12.020Z,29.50
2018-05-26T13:23:14.543Z,29.70
2018-05-26T13:24:17.059Z,29.90
2018-05-26T13:25:19.612Z,30.10
2018-05-26T13:26:22.146Z,30.30
2018-05-26T13:27:24.666Z,30.30
2018-05-26T13:28:27.184Z,30.20
2018-05-26T13:29:29.714Z,30.10